createdAt,value
2019-06-08T00:01:44.273Z,24.60
2019-06-08T00:04:10.231Z,24.60
2019-06-08T00:06:36.183Z,24.60
2019-06-08T00:09:03.100Z,24.60
2019-06-08T00:11:29.067Z,24.60
2019-06-08T00:13:55.071Z,24.60
2019-06-08T00:16:21.460Z,24.60
2019-06-08T00:18:47.560Z,24.60
2019-06-08T00:21:13.541Z,24.60
2019-06-08T00:23:39.564Z,24.60
2019-06-08T00:26:05.550Z,24.60
2019-06-08T00:28:31.490Z,24.60
2019-06-08T00:30:57.453Z,24.60
2019-06-08T00:33:24.622Z,24.60
2019-06-08T00:35:50.993Z,24.60
2019-06-08T00:38:16.980Z,24.50
2019-06-08T00:40:42.928Z,24.60
2019-06-08T00:43:08.918Z,24.60
2019-06-08T00:45:35.006Z,24.50
2019-06-08T00:48:01.066Z,24.60
2019-06-08T00:50:27.040Z,24.50
2019-06-08T00:52:53.068Z,24.60
2019-06-08T00:55:19.488Z,24.60
2019-06-08T00:57:45.570Z,24.60
2019-06-08T01:00:11.816Z,24.60
2019-06-08T01:02:37.936Z,24.60
2019-06-08T01:05:04.006Z,24.50
2019-06-08T01:07:30.500Z,24.50
2019-06-08T01:09:56.572Z,24.50
2019-06-08T01:12:22.643Z,24.50
2019-06-08T01:14:48.661Z,24.50
2019-06-08T01:17:14.647Z,24.50
2019-06-08T01:19:40.606Z,24.50
2019-06-08T01:22:06.585Z,24.50
2019-06-08T01:24:32.546Z,24.50
2019-06-08T01:26:58.511Z,24.50
2019-06-08T01:29:24.477Z,24.50
2019-06-08T01:31:50.420Z,24.50
2019-06-08T01:34:16.389Z,24.50
2019-06-08T01:36:42.438Z,24.50
2019-06-08T01:39:08.529Z,24.50
2019-06-08T01:41:34.471Z,24.50
2019-06-08T01:44:00.436Z,24.50
2019-06-08T01:46:26.377Z,24.50
2019-06-08T01:48:52.334Z,24.50
2019-06-08T01:51:18.337Z,24.50
2019-06-08T01:53:44.351Z,24.50
2019-06-08T01:56:10.310Z,24.50
2019-06-08T01:58:36.244Z,24.50
2019-06-08T02:01:02.224Z,24.50
2019-06-08T02:03:28.206Z,24.50
2019-06-08T02:05:54.234Z,24.50
2019-06-08T02:08:20.193Z,24.50
2019-06-08T02:10:46.191Z,24.50
2019-06-08T02:13:12.251Z,24.50
2019-06-08T02:15:38.191Z,24.50
2019-06-08T02:18:04.150Z,24.50
2019-06-08T02:20:30.819Z,24.50
2019-06-08T02:22:56.958Z,24.50
2019-06-08T02:25:23.179Z,24.50
2019-06-08T02:27:49.181Z,24.50
2019-06-08T02:30:15.229Z,24.50
2019-06-08T02:32:41.170Z,24.50
2019-06-08T02:35:07.142Z,24.50
2019-06-08T02:37:33.207Z,24.50
2019-06-08T02:39:59.767Z,24.50
2019-06-08T02:42:25.705Z,24.50
2019-06-08T02:44:51.772Z,24.50
2019-06-08T02:47:17.827Z,24.50
2019-06-08T02:49:43.783Z,24.50
2019-06-08T02:52:09.837Z,24.40
2019-06-08T02:54:37.909Z,24.40
2019-06-08T02:57:03.666Z,24.40
2019-06-08T02:59:31.263Z,24.40
2019-06-08T03:01:57.408Z,24.40
2019-06-08T03:04:23.437Z,24.40
2019-06-08T03:06:49.419Z,24.40
2019-06-08T03:09:15.395Z,24.40
2019-06-08T03:11:41.519Z,24.40
2019-06-08T03:14:07.694Z,24.50
2019-06-08T03:16:35.572Z,24.40
2019-06-08T03:19:20.078Z,24.40
2019-06-08T03:21:29.494Z,24.40
2019-06-08T03:23:55.466Z,24.40
2019-06-08T03:26:21.405Z,24.40
2019-06-08T03:28:47.366Z,24.40
2019-06-08T03:31:13.326Z,24.40
2019-06-08T03:33:49.004Z,24.40
2019-06-08T03:36:07.300Z,24.50
2019-06-08T03:38:33.876Z,24.40
2019-06-08T03:41:00.285Z,24.40
2019-06-08T03:43:26.260Z,24.40
2019-06-08T03:45:52.240Z,24.40
2019-06-08T03:48:18.273Z,24.40
2019-06-08T03:50:46.197Z,24.40
2019-06-08T03:53:12.186Z,24.40
2019-06-08T03:55:40.196Z,24.40
2019-06-08T03:58:06.000Z,24.50
2019-06-08T04:00:31.951Z,24.40
2019-06-08T04:02:57.900Z,24.40
2019-06-08T04:05:23.860Z,24.50
2019-06-08T04:07:50.454Z,24.50
2019-06-08T04:10:16.681Z,24.40
2019-06-08T04:12:44.268Z,24.40
2019-06-08T04:15:10.695Z,24.40
2019-06-08T04:17:37.914Z,24.40
2019-06-08T04:20:11.015Z,24.40
2019-06-08T04:22:31.946Z,24.50
2019-06-08T04:24:57.880Z,24.40
2019-06-08T04:27:23.831Z,24.40
2019-06-08T04:29:50.231Z,24.40
2019-06-08T04:32:16.377Z,24.40
2019-06-08T04:34:42.976Z,24.40
2019-06-08T04:37:09.130Z,24.40
2019-06-08T04:39:35.176Z,24.40
2019-06-08T04:42:01.137Z,24.40
2019-06-08T04:44:27.111Z,24.40
2019-06-08T04:46:53.068Z,24.40
2019-06-08T04:49:19.114Z,24.40
2019-06-08T04:51:46.813Z,24.40
2019-06-08T04:54:14.597Z,24.40
2019-06-08T04:56:40.968Z,24.40
2019-06-08T04:59:07.620Z,24.40
2019-06-08T05:01:33.797Z,24.40
2019-06-08T05:03:59.767Z,24.40
2019-06-08T05:06:25.746Z,24.50
2019-06-08T05:08:51.746Z,24.50
2019-06-08T05:11:17.775Z,24.50
2019-06-08T05:13:45.248Z,24.50
2019-06-08T05:16:11.425Z,24.50
2019-06-08T05:18:39.047Z,24.50
2019-06-08T05:21:05.325Z,24.50
2019-06-08T05:23:31.287Z,24.50
2019-06-08T05:25:59.157Z,24.50
2019-06-08T05:28:25.140Z,24.50
2019-06-08T05:30:51.205Z,24.50
2019-06-08T05:33:17.176Z,24.50
2019-06-08T05:35:43.510Z,24.50
2019-06-08T05:38:09.643Z,24.50
2019-06-08T05:40:35.697Z,24.50
2019-06-08T05:43:01.797Z,24.50
2019-06-08T05:45:27.748Z,24.50
2019-06-08T05:47:53.696Z,24.50
2019-06-08T05:50:19.656Z,24.50
2019-06-08T05:52:45.890Z,24.50
2019-06-08T05:55:12.087Z,24.50
2019-06-08T05:57:38.025Z,24.50
2019-06-08T06:00:08.762Z,24.50
2019-06-08T06:02:31.969Z,24.50
2019-06-08T06:04:57.940Z,24.50
2019-06-08T06:07:23.999Z,24.50
2019-06-08T06:09:51.124Z,24.50
2019-06-08T06:12:17.340Z,24.50
2019-06-08T06:14:43.310Z,24.50
2019-06-08T06:17:09.355Z,24.50
2019-06-08T06:19:35.354Z,24.40
2019-06-08T06:22:01.330Z,24.40
2019-06-08T06:24:27.272Z,24.40
2019-06-08T06:26:53.244Z,24.40
2019-06-08T06:29:19.192Z,24.40
2019-06-08T06:31:45.790Z,24.50
2019-06-08T06:34:11.934Z,24.50
2019-06-08T06:36:37.958Z,24.50
2019-06-08T06:39:04.758Z,24.50
2019-06-08T06:41:30.707Z,24.50
2019-06-08T06:43:56.665Z,24.50
2019-06-08T06:46:22.725Z,24.50
2019-06-08T06:48:48.702Z,24.50
2019-06-08T06:51:25.780Z,24.40
2019-06-08T06:53:42.834Z,24.40
2019-06-08T06:56:08.980Z,24.40
2019-06-08T06:58:34.943Z,24.40
2019-06-08T07:01:00.897Z,24.40
2019-06-08T07:03:26.959Z,24.40
2019-06-08T07:05:54.070Z,24.40
2019-06-08T07:08:20.381Z,24.40
2019-06-08T07:10:46.641Z,24.40
2019-06-08T07:13:12.689Z,24.40
2019-06-08T07:15:41.818Z,24.40
2019-06-08T07:18:06.530Z,24.40
2019-06-08T07:20:32.479Z,24.40
2019-06-08T07:22:58.988Z,24.40
2019-06-08T07:25:25.199Z,24.40
2019-06-08T07:27:52.550Z,24.40
2019-06-08T07:30:18.667Z,24.40
2019-06-08T07:32:44.667Z,24.40
2019-06-08T07:35:10.642Z,24.40
2019-06-08T07:37:36.629Z,24.40
2019-06-08T07:40:02.679Z,24.40
2019-06-08T07:42:28.732Z,24.40
2019-06-08T07:44:55.120Z,24.40
2019-06-08T07:47:21.344Z,24.40
2019-06-08T07:49:47.316Z,24.40
2019-06-08T07:52:13.288Z,24.40
2019-06-08T07:54:39.229Z,24.30
2019-06-08T07:57:05.247Z,24.30
2019-06-08T07:59:31.267Z,24.30
2019-06-08T08:01:58.329Z,24.40
2019-06-08T08:04:24.551Z,24.40
2019-06-08T08:06:50.523Z,24.40
2019-06-08T08:09:16.465Z,24.40
2019-06-08T08:11:42.456Z,24.40
2019-06-08T08:14:08.519Z,24.40
2019-06-08T08:16:34.574Z,24.40
2019-06-08T08:19:00.506Z,24.40
2019-06-08T08:21:29.396Z,24.40
2019-06-08T08:23:55.908Z,24.40
2019-06-08T08:26:22.181Z,24.40
2019-06-08T08:28:50.015Z,24.40
2019-06-08T08:31:18.410Z,24.40
2019-06-08T08:33:43.862Z,24.40
2019-06-08T08:36:09.895Z,24.40
2019-06-08T08:38:38.178Z,24.40
2019-06-08T08:41:07.245Z,24.40
2019-06-08T08:43:31.605Z,24.40
2019-06-08T08:45:59.161Z,24.40
2019-06-08T08:48:30.950Z,24.40
2019-06-08T08:50:54.189Z,24.40
2019-06-08T08:53:20.345Z,24.40
2019-06-08T08:55:48.030Z,24.40
2019-06-08T08:58:14.170Z,24.40
2019-06-08T09:00:41.286Z,24.50
2019-06-08T09:03:22.067Z,24.40
2019-06-08T09:05:35.248Z,24.50
2019-06-08T09:08:02.650Z,24.50
2019-06-08T09:10:29.175Z,24.50
2019-06-08T09:12:56.473Z,24.50
2019-06-08T09:15:23.031Z,24.50
2019-06-08T09:17:49.010Z,24.50
2019-06-08T09:20:16.515Z,24.50
2019-06-08T09:22:53.912Z,24.50
2019-06-08T09:25:13.511Z,24.50
2019-06-08T09:27:38.704Z,24.40
2019-06-08T09:30:04.832Z,24.50
2019-06-08T09:32:30.907Z,24.50
2019-06-08T09:34:59.587Z,24.50
2019-06-08T09:37:24.759Z,24.50
2019-06-08T09:39:50.814Z,24.40
2019-06-08T09:42:20.957Z,24.40
2019-06-08T09:44:44.647Z,24.40
2019-06-08T09:47:12.566Z,24.50
2019-06-08T09:49:38.502Z,24.50
2019-06-08T09:52:05.356Z,24.50
2019-06-08T09:54:32.437Z,24.50
2019-06-08T09:57:02.125Z,24.50
2019-06-08T09:59:28.322Z,24.50
2019-06-08T10:01:55.141Z,24.40
2019-06-08T10:04:25.451Z,24.40
2019-06-08T10:06:50.095Z,24.40
2019-06-08T10:09:18.471Z,24.40
2019-06-08T10:11:43.965Z,24.40
2019-06-08T10:14:12.403Z,24.40
2019-06-08T10:16:38.264Z,24.40
2019-06-08T10:19:07.082Z,24.40
2019-06-08T10:21:32.302Z,24.40
2019-06-08T10:24:00.939Z,24.40
2019-06-08T10:26:27.957Z,24.40
2019-06-08T10:28:55.251Z,24.40
2019-06-08T10:31:35.721Z,24.40
2019-06-08T10:33:49.395Z,24.40
2019-06-08T10:36:15.393Z,24.40
2019-06-08T10:38:41.655Z,24.40
2019-06-08T10:41:16.253Z,24.40
2019-06-08T10:43:38.278Z,24.50
2019-06-08T10:46:10.211Z,24.50
2019-06-08T10:48:31.430Z,24.50
2019-06-08T10:50:58.538Z,24.50
2019-06-08T10:53:25.265Z,24.50
2019-06-08T10:55:51.217Z,24.50
2019-06-08T10:58:19.364Z,24.60
2019-06-08T11:00:45.151Z,24.60
2019-06-08T11:03:11.898Z,24.60
2019-06-08T11:05:37.970Z,24.60
2019-06-08T11:08:05.823Z,24.60
2019-06-08T11:10:31.901Z,24.60
2019-06-08T11:13:04.419Z,24.60
2019-06-08T11:15:29.363Z,24.60
2019-06-08T11:17:53.725Z,24.60
2019-06-08T11:20:19.689Z,24.70
2019-06-08T11:22:49.840Z,24.70
2019-06-08T11:25:16.781Z,24.70
2019-06-08T11:27:41.588Z,24.60
2019-06-08T11:30:14.157Z,24.60
2019-06-08T11:32:38.201Z,24.60
2019-06-08T11:35:04.083Z,24.70
2019-06-08T11:37:30.313Z,24.70
2019-06-08T11:39:57.687Z,24.70
2019-06-08T11:42:26.283Z,24.70
2019-06-08T11:44:51.708Z,24.70
2019-06-08T11:47:18.294Z,24.70
2019-06-08T11:49:44.479Z,24.70
2019-06-08T11:52:11.178Z,24.70
2019-06-08T11:54:40.708Z,24.80
2019-06-08T11:57:05.158Z,24.80
2019-06-08T11:59:31.228Z,24.80
2019-06-08T12:01:58.623Z,24.80
2019-06-08T12:04:24.817Z,24.80
2019-06-08T12:06:50.776Z,24.80
2019-06-08T12:09:18.859Z,24.80
2019-06-08T12:11:44.705Z,24.80
2019-06-08T12:14:11.432Z,24.80
2019-06-08T12:16:38.620Z,24.80
2019-06-08T12:19:06.019Z,24.80
2019-06-08T12:21:32.447Z,24.80
2019-06-08T12:23:58.446Z,24.80
2019-06-08T12:26:24.467Z,24.80
2019-06-08T12:28:50.444Z,24.80
2019-06-08T12:31:21.433Z,24.80
2019-06-08T12:33:44.262Z,24.80
2019-06-08T12:36:13.630Z,24.80
2019-06-08T12:38:38.142Z,24.80
2019-06-08T12:41:04.080Z,24.80
2019-06-08T12:43:30.099Z,24.80
2019-06-08T12:45:58.102Z,24.80
2019-06-08T12:48:25.389Z,24.80
2019-06-08T12:50:51.590Z,24.70
2019-06-08T12:53:21.212Z,24.70
2019-06-08T12:55:47.486Z,24.70
2019-06-08T12:58:14.438Z,24.70
2019-06-08T13:00:40.449Z,24.70
2019-06-08T13:03:08.623Z,24.70
2019-06-08T13:05:34.263Z,24.70
2019-06-08T13:08:00.217Z,24.70
2019-06-08T13:10:27.781Z,24.60
2019-06-08T13:12:53.935Z,24.70
2019-06-08T13:15:21.888Z,24.60
2019-06-08T13:17:50.431Z,24.60
2019-06-08T13:20:20.521Z,24.60
2019-06-08T13:22:43.890Z,24.60
2019-06-08T13:25:21.208Z,24.60
2019-06-08T13:27:38.017Z,24.60
2019-06-08T13:30:04.062Z,24.70
2019-06-08T13:32:30.035Z,24.70
2019-06-08T13:34:58.261Z,24.70
2019-06-08T13:37:23.988Z,24.70
2019-06-08T13:39:49.945Z,24.70
2019-06-08T13:42:18.466Z,24.70
2019-06-08T13:44:43.758Z,24.70
2019-06-08T13:47:11.132Z,24.70
2019-06-08T13:49:37.716Z,24.70
2019-06-08T13:52:03.885Z,24.70
2019-06-08T13:54:31.304Z,24.70
2019-06-08T13:56:58.978Z,24.70
2019-06-08T13:59:30.127Z,24.70
2019-06-08T14:01:53.107Z,24.70
2019-06-08T14:04:20.667Z,24.70
2019-06-08T14:06:48.588Z,24.70
2019-06-08T14:09:16.933Z,24.70
2019-06-08T14:11:43.282Z,25.20
2019-06-08T14:14:09.252Z,24.70
2019-06-08T14:16:38.716Z,24.70
2019-06-08T14:19:03.973Z,24.70
2019-06-08T14:21:38.735Z,24.70
2019-06-08T14:23:58.722Z,24.70
2019-06-08T14:26:25.978Z,24.70
2019-06-08T14:28:52.186Z,24.70
2019-06-08T14:31:19.731Z,24.70
2019-06-08T14:33:48.290Z,24.70
2019-06-08T14:36:13.919Z,24.70
2019-06-08T14:38:42.055Z,24.70
2019-06-08T14:41:07.863Z,24.60
2019-06-08T14:43:33.918Z,24.60
2019-06-08T14:46:00.088Z,24.70
2019-06-08T14:48:31.668Z,24.60
2019-06-08T14:50:53.906Z,24.60
2019-06-08T14:53:20.419Z,24.60
2019-06-08T14:55:49.993Z,24.60
2019-06-08T14:58:18.126Z,24.60
2019-06-08T15:00:43.387Z,24.60
2019-06-08T15:03:09.349Z,24.60
2019-06-08T15:05:35.310Z,24.60
2019-06-08T15:08:01.362Z,24.60
2019-06-08T15:10:29.374Z,24.60
2019-06-08T15:12:57.573Z,24.60
2019-06-08T15:15:23.622Z,24.60
2019-06-08T15:17:49.741Z,24.70
2019-06-08T15:20:17.592Z,24.70
2019-06-08T15:22:43.655Z,24.70
2019-06-08T15:25:11.167Z,24.60
2019-06-08T15:27:38.977Z,24.60
2019-06-08T15:30:05.173Z,24.60
2019-06-08T15:32:33.727Z,24.60
2019-06-08T15:34:59.098Z,24.60
2019-06-08T15:37:25.273Z,24.60
2019-06-08T15:39:52.897Z,24.60
2019-06-08T15:42:18.867Z,24.60
2019-06-08T15:44:44.833Z,24.60
2019-06-08T15:47:10.790Z,24.60
2019-06-08T15:49:38.851Z,24.60
2019-06-08T15:52:04.573Z,24.60
2019-06-08T15:54:37.253Z,24.70
2019-06-08T15:56:58.610Z,24.60
2019-06-08T15:59:24.870Z,24.60
2019-06-08T16:01:50.965Z,24.60
2019-06-08T16:04:16.926Z,24.60
2019-06-08T16:06:42.914Z,24.60
2019-06-08T16:09:09.478Z,24.70
2019-06-08T16:11:35.430Z,24.60
2019-06-08T16:14:01.500Z,24.60
2019-06-08T16:16:27.462Z,24.60
2019-06-08T16:18:53.602Z,24.60
2019-06-08T16:21:19.648Z,25.30
2019-06-08T16:23:45.643Z,24.60
2019-06-08T16:26:11.757Z,24.60
2019-06-08T16:28:38.421Z,24.60
2019-06-08T16:31:05.575Z,24.60
2019-06-08T16:33:31.743Z,24.60
2019-06-08T16:35:57.699Z,24.60
2019-06-08T16:38:23.648Z,24.60
2019-06-08T16:40:49.627Z,24.60
2019-06-08T16:43:15.678Z,24.60
2019-06-08T16:45:41.652Z,24.60
2019-06-08T16:48:07.689Z,24.60
2019-06-08T16:50:34.321Z,24.60
2019-06-08T16:53:00.505Z,24.60
2019-06-08T16:55:27.668Z,24.60
2019-06-08T16:57:53.759Z,24.60
2019-06-08T17:00:38.553Z,24.60
2019-06-08T17:02:47.720Z,24.60
2019-06-08T17:05:13.665Z,24.60
2019-06-08T17:07:39.790Z,24.60
2019-06-08T17:10:05.871Z,24.60
2019-06-08T17:12:32.826Z,24.60
2019-06-08T17:14:58.972Z,24.60
2019-06-08T17:17:25.020Z,24.60
2019-06-08T17:19:51.091Z,24.60
2019-06-08T17:22:17.065Z,24.60
2019-06-08T17:24:43.139Z,24.60
2019-06-08T17:27:25.289Z,24.60
2019-06-08T17:29:37.073Z,24.60
2019-06-08T17:32:03.066Z,24.60
2019-06-08T17:34:29.028Z,24.60
2019-06-08T17:36:55.102Z,24.60
2019-06-08T17:39:21.159Z,24.50
2019-06-08T17:41:47.119Z,24.60
2019-06-08T17:44:13.078Z,24.50
2019-06-08T17:46:39.282Z,24.60
2019-06-08T17:49:06.843Z,24.60
2019-06-08T17:51:32.834Z,24.50
2019-06-08T17:53:58.861Z,24.60
2019-06-08T17:56:24.800Z,24.60
2019-06-08T17:58:50.753Z,24.50
2019-06-08T18:01:16.722Z,24.50
2019-06-08T18:03:43.348Z,24.50
2019-06-08T18:06:10.534Z,24.50
2019-06-08T18:08:39.160Z,24.50
2019-06-08T18:11:04.384Z,24.50
2019-06-08T18:13:30.431Z,24.50
2019-06-08T18:15:57.580Z,24.50
2019-06-08T18:18:25.102Z,24.50
2019-06-08T18:20:52.205Z,24.40
2019-06-08T18:23:18.425Z,24.40
2019-06-08T18:25:44.947Z,24.40
2019-06-08T18:28:13.585Z,24.40
2019-06-08T18:30:41.746Z,24.40
2019-06-08T18:33:07.405Z,24.40
2019-06-08T18:35:34.614Z,24.30
2019-06-08T18:38:01.368Z,24.30
2019-06-08T18:40:27.800Z,24.30
2019-06-08T18:42:53.918Z,24.30
2019-06-08T18:45:19.889Z,24.30
2019-06-08T18:47:48.167Z,24.30
2019-06-08T18:50:13.843Z,24.30
2019-06-08T18:52:41.846Z,24.30
2019-06-08T18:55:08.318Z,24.30
2019-06-08T18:57:35.394Z,24.30
2019-06-08T19:00:08.121Z,24.30
2019-06-08T19:02:29.333Z,24.30
2019-06-08T19:04:57.238Z,24.30
2019-06-08T19:07:23.233Z,24.20
2019-06-08T19:09:49.762Z,24.20
2019-06-08T19:12:16.895Z,24.20
2019-06-08T19:14:43.926Z,24.20
2019-06-08T19:17:09.889Z,24.20
2019-06-08T19:19:38.515Z,24.20
2019-06-08T19:22:03.688Z,24.20
2019-06-08T19:24:29.672Z,24.20
2019-06-08T19:26:57.770Z,24.20
2019-06-08T19:29:23.613Z,24.20
2019-06-08T19:31:51.205Z,24.30
2019-06-08T19:34:18.152Z,24.30
2019-06-08T19:36:45.704Z,24.30
2019-06-08T19:39:12.462Z,24.30
2019-06-08T19:41:39.917Z,24.30
2019-06-08T19:44:07.516Z,24.30
2019-06-08T19:46:33.624Z,24.30
2019-06-08T19:48:59.705Z,24.30
2019-06-08T19:51:27.835Z,24.30
2019-06-08T19:53:54.939Z,24.30
2019-06-08T19:56:21.515Z,24.30
2019-06-08T19:58:56.030Z,24.30
2019-06-08T20:01:17.508Z,24.30
2019-06-08T20:03:44.707Z,24.30
2019-06-08T20:06:14.116Z,24.30
2019-06-08T20:08:38.825Z,24.30
2019-06-08T20:11:04.820Z,24.30
2019-06-08T20:13:30.805Z,24.30
2019-06-08T20:15:59.598Z,24.30
2019-06-08T20:18:24.749Z,24.30
2019-06-08T20:20:53.111Z,24.30
2019-06-08T20:23:18.574Z,24.30
2019-06-08T20:25:45.210Z,24.30
2019-06-08T20:28:11.417Z,24.30
2019-06-08T20:30:37.410Z,24.30
2019-06-08T20:33:03.516Z,24.40
2019-06-08T20:35:29.545Z,24.40
2019-06-08T20:37:57.665Z,24.40
2019-06-08T20:40:23.389Z,24.40
2019-06-08T20:42:52.992Z,24.40
2019-06-08T20:45:17.342Z,24.40
2019-06-08T20:47:44.343Z,24.40
2019-06-08T20:50:10.507Z,24.40
2019-06-08T20:52:37.825Z,24.40
2019-06-08T20:55:04.044Z,24.40
2019-06-08T20:57:30.095Z,24.40
2019-06-08T20:59:58.065Z,24.40
2019-06-08T21:02:23.915Z,24.40
2019-06-08T21:04:52.523Z,24.30
2019-06-08T21:07:17.739Z,24.30
2019-06-08T21:09:44.830Z,24.30
2019-06-08T21:12:11.383Z,24.30
2019-06-08T21:14:37.963Z,24.40
2019-06-08T21:17:04.069Z,24.40
2019-06-08T21:19:30.014Z,24.30
2019-06-08T21:21:58.475Z,24.40
2019-06-08T21:24:23.899Z,24.40
2019-06-08T21:26:52.852Z,24.40
2019-06-08T21:29:17.780Z,24.40
2019-06-08T21:31:43.764Z,24.40
2019-06-08T21:34:09.719Z,24.40
2019-06-08T21:36:37.591Z,24.40
2019-06-08T21:39:03.846Z,24.40
2019-06-08T21:41:29.919Z,24.40
2019-06-08T21:44:00.033Z,24.40
2019-06-08T21:46:23.750Z,24.30
2019-06-08T21:48:51.585Z,24.30
2019-06-08T21:51:17.747Z,24.30
2019-06-08T21:53:43.779Z,24.40
2019-06-08T21:56:09.779Z,24.30
2019-06-08T21:58:37.855Z,24.40
2019-06-08T22:01:03.951Z,24.40
2019-06-08T22:03:29.894Z,24.40
2019-06-08T22:05:58.452Z,24.40
2019-06-08T22:08:23.733Z,24.40
2019-06-08T22:10:51.024Z,24.30
2019-06-08T22:13:17.649Z,24.30
2019-06-08T22:15:43.791Z,24.30
2019-06-08T22:18:09.815Z,24.40
2019-06-08T22:20:38.101Z,24.40
2019-06-08T22:23:03.778Z,24.40
2019-06-08T22:25:33.195Z,24.30
2019-06-08T22:27:58.387Z,24.40
2019-06-08T22:30:36.337Z,24.40
2019-06-08T22:32:53.837Z,24.30
2019-06-08T22:35:19.954Z,24.30
2019-06-08T22:37:47.938Z,24.30
2019-06-08T22:40:13.809Z,24.30
2019-06-08T22:42:39.789Z,24.30
2019-06-08T22:45:08.071Z,24.30
2019-06-08T22:47:33.698Z,24.30
2019-06-08T22:50:00.825Z,24.30
2019-06-08T22:52:27.792Z,24.30
2019-06-08T22:54:57.596Z,24.30
2019-06-08T22:57:21.762Z,24.30
2019-06-08T22:59:47.793Z,24.30
2019-06-08T23:02:13.946Z,24.30
2019-06-08T23:04:39.996Z,24.30
2019-06-08T23:07:09.473Z,24.30
2019-06-08T23:09:37.178Z,24.30
2019-06-08T23:12:04.402Z,24.30
2019-06-08T23:14:30.542Z,24.30
2019-06-08T23:16:59.589Z,24.30
2019-06-08T23:19:26.347Z,24.30
2019-06-08T23:21:52.319Z,24.30
2019-06-08T23:24:18.311Z,24.30
2019-06-08T23:26:44.278Z,24.30
2019-06-08T23:29:10.623Z,24.30
2019-06-08T23:31:38.790Z,24.30
2019-06-08T23:34:07.219Z,24.30
2019-06-08T23:36:50.726Z,24.30
2019-06-08T23:39:01.081Z,24.30
2019-06-08T23:41:27.406Z,24.30
2019-06-08T23:43:53.466Z,24.30
2019-06-08T23:46:19.435Z,24.40
2019-06-08T23:48:48.148Z,24.30
2019-06-08T23:51:13.386Z,24.30
2019-06-08T23:53:39.352Z,24.30
2019-06-08T23:56:06.099Z,24.30
2019-06-08T23:58:33.188Z,24.30
